Time;durP1;ratioP1;P1;durP2;ratioP2;P2;SDS_P1;SDS_P2;PMS_P1;PMS_P2;Temp;Humidity;BMP_temperature;BMP_pressure;BME280_temperature;BME280_humidity;BME280_pressure;Samples;Min_cycle;Max_cycle;Signal;HPM_P1;HPM_P2
2023/01/13 00:01:29;;;;;;;0.67;0.67;;;;;;;7.20;100.00;99926.38;5021569;28;20211;-74
2023/01/13 00:03:55;;;;;;;0.70;0.70;;;;;;;7.20;100.00;99928.13;5016855;28;20198;-75
2023/01/13 00:06:25;;;;;;;0.70;0.70;;;;;;;7.19;100.00;99934.19;5027752;28;20200;-74
2023/01/13 00:08:52;;;;;;;0.60;0.60;;;;;;;7.18;100.00;99924.72;5022598;28;20790;-73
2023/01/13 00:11:19;;;;;;;0.60;0.60;;;;;;;7.19;100.00;99924.69;5023687;28;20208;-73
2023/01/13 00:13:46;;;;;;;0.63;0.63;;;;;;;7.23;100.00;99929.78;5019922;28;20236;-75
2023/01/13 00:16:15;;;;;;;0.60;0.60;;;;;;;7.22;100.00;99923.75;5022476;28;20189;-74
2023/01/13 00:18:42;;;;;;;2.43;0.97;;;;;;;7.19;100.00;99911.72;5002128;28;20233;-74
2023/01/13 00:21:13;;;;;;;0.60;0.60;;;;;;;7.23;100.00;99914.22;5023565;28;20201;-75
2023/01/13 00:23:40;;;;;;;1.00;0.73;;;;;;;7.22;100.00;99909.94;5005951;28;20294;-73
2023/01/13 00:26:09;;;;;;;0.60;0.60;;;;;;;7.25;100.00;99910.72;5022321;28;20457;-74
2023/01/13 00:28:36;;;;;;;0.57;0.57;;;;;;;7.26;100.00;99902.03;5027857;28;20675;-74
2023/01/13 00:31:06;;;;;;;0.60;0.60;;;;;;;7.26;100.00;99907.22;5008290;28;20202;-75
2023/01/13 00:33:32;;;;;;;0.50;0.50;;;;;;;7.25;100.00;99904.69;5021530;28;20236;-74
2023/01/13 00:36:00;;;;;;;0.63;0.63;;;;;;;7.28;100.00;99908.06;4999349;28;20196;-75
2023/01/13 00:38:27;;;;;;;1.37;0.73;;;;;;;7.28;100.00;99905.47;5030389;28;20564;-75
2023/01/13 00:40:58;;;;;;;0.60;0.60;;;;;;;7.29;100.00;99903.72;5024433;28;20786;-75
2023/01/13 00:43:24;;;;;;;0.90;0.80;;;;;;;7.31;100.00;99907.97;5024949;28;20211;-74
2023/01/13 00:45:51;;;;;;;0.63;0.63;;;;;;;7.27;100.00;99902.91;5020686;28;20209;-74
2023/01/13 00:48:17;;;;;;;0.73;0.60;;;;;;;7.29;100.00;99908.91;5028198;28;20242;-75
2023/01/13 00:50:44;;;;;;;0.50;0.50;;;;;;;7.27;100.00;99902.91;5025988;28;20203;-74
2023/01/13 00:53:12;;;;;;;0.63;0.60;;;;;;;7.27;100.00;99897.72;5022475;28;20199;-74
2023/01/13 00:55:39;;;;;;;0.50;0.50;;;;;;;7.31;100.00;99896.75;5022073;28;20288;-73
2023/01/13 00:58:06;;;;;;;0.50;0.50;;;;;;;7.29;100.00;99899.38;5021726;28;20317;-74
2023/01/13 01:00:33;;;;;;;0.70;0.70;;;;;;;7.31;100.00;99912.31;5029954;28;20225;-75
2023/01/13 01:02:59;;;;;;;0.53;0.53;;;;;;;7.31;100.00;99905.38;5026112;28;20207;-73
2023/01/13 01:05:25;;;;;;;0.60;0.60;;;;;;;7.31;100.00;99900.19;5023549;28;20213;-74
2023/01/13 01:07:52;;;;;;;0.53;0.53;;;;;;;7.33;100.00;99901.00;5020847;28;20221;-74
2023/01/13 01:10:18;;;;;;;0.40;0.40;;;;;;;7.32;100.00;99895.88;5029074;28;20214;-74
2023/01/13 01:12:45;;;;;;;0.80;0.70;;;;;;;7.34;100.00;99899.28;5023600;28;20281;-74
2023/01/13 01:15:12;;;;;;;0.57;0.57;;;;;;;7.36;100.00;99900.09;5027700;28;20209;-74
2023/01/13 01:17:39;;;;;;;1.67;0.50;;;;;;;7.37;100.00;99904.41;5024336;28;20697;-73
2023/01/13 01:20:06;;;;;;;0.60;0.60;;;;;;;7.41;100.00;99902.59;5028401;28;20269;-74
2023/01/13 01:22:32;;;;;;;1.07;0.70;;;;;;;7.41;100.00;99898.25;5030436;28;20556;-75
2023/01/13 01:24:59;;;;;;;1.90;0.60;;;;;;;7.42;100.00;99888.72;5026440;28;20211;-74
2023/01/13 01:27:25;;;;;;;0.63;0.63;;;;;;;7.43;100.00;99893.03;5023212;28;20268;-74
2023/01/13 01:29:51;;;;;;;0.53;0.53;;;;;;;7.46;100.00;99886.00;5010119;28;20250;-73
2023/01/13 01:32:19;;;;;;;0.50;0.50;;;;;;;7.45;100.00;99897.25;5025706;28;20269;-74
2023/01/13 01:34:46;;;;;;;0.73;0.50;;;;;;;7.46;100.00;99891.19;5024856;28;20198;-74
2023/01/13 01:37:12;;;;;;;0.40;0.40;;;;;;;7.48;100.00;99891.16;5025715;28;20287;-74
2023/01/13 01:39:38;;;;;;;1.00;0.50;;;;;;;7.46;100.00;99880.81;5025135;28;20268;-73
2023/01/13 01:45:01;;;;;;;1.80;0.50;;;;;;;7.46;100.00;99883.41;4953008;28;20252;-74
2023/01/13 01:47:30;;;;;;;0.50;0.50;;;;;;;7.46;100.00;99886.00;5022005;28;20227;-75
2023/01/13 01:49:58;;;;;;;0.90;0.57;;;;;;;7.42;100.00;99879.19;5026583;28;20206;-74
2023/01/13 01:52:28;;;;;;;1.90;0.70;;;;;;;7.44;100.00;99889.50;5028631;28;20662;-74
2023/01/13 01:54:58;;;;;;;1.43;0.50;;;;;;;7.44;100.00;99874.81;5007518;28;20232;-73
2023/01/13 01:57:31;;;;;;;0.40;0.40;;;;;;;7.44;100.00;99876.53;5023284;28;20723;-75
2023/01/13 01:59:59;;;;;;;0.63;0.53;;;;;;;7.43;100.00;99880.03;5022755;28;20690;-74
2023/01/13 02:02:26;;;;;;;0.40;0.40;;;;;;;7.39;100.00;99880.13;5024234;28;20214;-75
2023/01/13 02:04:55;;;;;;;1.43;0.80;;;;;;;7.39;100.00;99877.53;5025691;28;20215;-74
2023/01/13 02:07:26;;;;;;;0.57;0.57;;;;;;;7.39;100.00;99871.50;5019789;28;20222;-75
2023/01/13 02:09:55;;;;;;;0.90;0.50;;;;;;;7.42;100.00;99866.22;5026194;28;20202;-74
2023/01/13 02:12:31;;;;;;;0.73;0.50;;;;;;;7.43;100.00;99859.31;5029195;28;20211;-75
2023/01/13 02:15:02;;;;;;;0.40;0.40;;;;;;;7.44;100.00;99868.75;5021810;28;20241;-74
2023/01/13 02:17:44;;;;;;;0.70;0.70;;;;;;;7.45;100.00;99860.09;5018006;28;20220;-74
2023/01/13 02:20:35;;;;;;;0.60;0.60;;;;;;;7.44;100.00;99855.78;5025439;28;20226;-73
2023/01/13 02:26:39;;;;;;;1.60;0.60;;;;;;;7.48;100.00;99849.66;5022420;28;20215;-74
2023/01/13 02:32:08;;;;;;;0.87;0.50;;;;;;;7.50;100.00;99856.50;5029385;28;21046;-75
2023/01/13 02:34:40;;;;;;;0.53;0.50;;;;;;;7.48;100.00;99853.09;5025716;28;20755;-74
2023/01/13 02:37:11;;;;;;;0.47;0.47;;;;;;;7.49;100.00;99844.44;5024440;28;20206;-73
2023/01/13 02:39:45;;;;;;;1.37;0.50;;;;;;;7.50;100.00;99851.31;5020956;28;20222;-75
2023/01/13 02:45:09;;;;;;;0.50;0.50;;;;;;;7.53;100.00;99850.41;5024647;28;20568;-73
2023/01/13 02:47:39;;;;;;;0.50;0.50;;;;;;;7.52;100.00;99843.50;5023460;28;20670;-74
2023/01/13 02:50:08;;;;;;;0.67;0.50;;;;;;;7.50;100.00;99848.72;5018300;28;20280;-74
2023/01/13 02:52:40;;;;;;;0.40;0.40;;;;;;;7.51;100.00;99841.78;5020131;28;20205;-74
2023/01/13 02:55:12;;;;;;;0.77;0.70;;;;;;;7.50;100.00;99835.75;5023373;28;20208;-74
2023/01/13 02:57:41;;;;;;;0.60;0.60;;;;;;;7.49;100.00;99822.81;5024358;28;20402;-74
2023/01/13 03:00:10;;;;;;;1.67;0.60;;;;;;;7.47;100.00;99834.97;5020213;28;20205;-74
2023/01/13 03:02:38;;;;;;;0.50;0.50;;;;;;;7.49;100.00;99831.47;5020681;28;20204;-74
2023/01/13 03:05:05;;;;;;;0.53;0.53;;;;;;;7.51;100.00;99828.81;5021875;28;20219;-74
2023/01/13 03:07:52;;;;;;;0.50;0.50;;;;;;;7.50;100.00;99832.31;5021670;28;20231;-74
2023/01/13 03:10:36;;;;;;;0.70;0.70;;;;;;;7.49;100.00;99831.47;5023521;28;20217;-74
2023/01/13 03:13:13;;;;;;;0.90;0.67;;;;;;;7.50;100.00;99821.94;5028566;28;21560;-73
2023/01/13 03:15:47;;;;;;;0.63;0.63;;;;;;;7.50;100.00;99833.16;5028223;28;20198;-74
2023/01/13 03:18:28;;;;;;;0.60;0.60;;;;;;;7.50;100.00;99833.16;5021831;28;20230;-74
2023/01/13 03:21:04;;;;;;;0.73;0.63;;;;;;;7.51;100.00;99826.22;5021146;28;20207;-75
2023/01/13 03:23:35;;;;;;;0.77;0.50;;;;;;;7.50;100.00;99827.97;5029205;28;20213;-74
2023/01/13 03:26:08;;;;;;;0.53;0.53;;;;;;;7.50;100.00;99834.91;5023344;28;20214;-75
2023/01/13 03:28:42;;;;;;;0.60;0.60;;;;;;;7.49;100.00;99826.28;5018899;28;20220;-73
2023/01/13 03:31:13;;;;;;;0.70;0.70;;;;;;;7.50;100.00;99833.16;5017996;28;20194;-74
2023/01/13 03:33:47;;;;;;;0.50;0.50;;;;;;;7.53;100.00;99829.66;5025794;28;20214;-74
2023/01/13 03:36:17;;;;;;;0.53;0.50;;;;;;;7.53;100.00;99827.88;5024175;28;20673;-72
2023/01/13 03:38:48;;;;;;;0.63;0.60;;;;;;;7.51;100.00;99834.00;5024362;28;20230;-74
2023/01/13 03:41:19;;;;;;;0.63;0.60;;;;;;;7.52;100.00;99823.59;5022983;28;20225;-75
2023/01/13 03:46:43;;;;;;;0.83;0.57;;;;;;;7.51;100.00;99828.81;5022570;28;20727;-74
2023/01/13 03:49:17;;;;;;;0.30;0.30;;;;;;;7.51;100.00;99823.63;5021022;28;20225;-74
2023/01/13 03:51:49;;;;;;;0.40;0.40;;;;;;;7.51;100.00;99831.41;5015559;28;20211;-75
2023/01/13 03:54:18;;;;;;;0.40;0.40;;;;;;;7.51;100.00;99828.81;5029450;28;20305;-75
2023/01/13 03:56:48;;;;;;;0.53;0.53;;;;;;;7.50;100.00;99830.56;5027677;28;20211;-73
2023/01/13 03:59:20;;;;;;;1.27;0.70;;;;;;;7.50;100.00;99830.56;5022694;28;20715;-74
2023/01/13 04:01:52;;;;;;;0.50;0.50;;;;;;;7.47;100.00;99822.00;5004505;28;20633;-75
2023/01/13 04:04:24;;;;;;;1.40;0.63;;;;;;;7.43;100.00;99823.84;5023105;28;20213;-72
2023/01/13 04:06:55;;;;;;;0.70;0.70;;;;;;;7.42;100.00;99829.06;5028823;28;20201;-75
2023/01/13 04:09:29;;;;;;;0.70;0.70;;;;;;;7.38;100.00;99830.88;5008283;28;20238;-74
2023/01/13 04:12:02;;;;;;;0.70;0.70;;;;;;;7.34;100.00;99830.09;5016845;28;20199;-75
2023/01/13 04:14:29;;;;;;;0.50;0.50;;;;;;;7.32;100.00;99839.66;5001995;28;20207;-74
2023/01/13 04:16:56;;;;;;;0.60;0.60;;;;;;;7.38;100.00;99836.06;5027018;28;20693;-73
2023/01/13 04:19:24;;;;;;;0.70;0.50;;;;;;;7.41;100.00;99833.41;5027704;28;20316;-73
2023/01/13 04:21:50;;;;;;;0.60;0.60;;;;;;;7.44;100.00;99833.31;5019574;28;20254;-75
2023/01/13 04:24:16;;;;;;;0.93;0.83;;;;;;;7.45;100.00;99832.41;5023451;28;20577;-74
2023/01/13 04:26:43;;;;;;;0.77;0.77;;;;;;;7.44;100.00;99830.72;5021972;28;20754;-74
2023/01/13 04:29:09;;;;;;;0.73;0.73;;;;;;;7.42;100.00;99829.91;5027580;28;20236;-74
2023/01/13 04:31:37;;;;;;;0.80;0.50;;;;;;;7.46;100.00;99833.25;5018823;28;20203;-74
2023/01/13 04:34:03;;;;;;;1.03;0.70;;;;;;;7.49;100.00;99828.00;5022616;28;20207;-74
2023/01/13 04:36:31;;;;;;;0.90;0.73;;;;;;;7.50;100.00;99827.97;5022861;28;20244;-74
2023/01/13 04:38:57;;;;;;;2.97;1.30;;;;;;;7.52;100.00;99822.75;5022031;28;20214;-75
2023/01/13 04:41:24;;;;;;;1.13;0.90;;;;;;;7.51;100.00;99827.09;5022487;28;20231;-75
2023/01/13 04:43:53;;;;;;;1.03;0.70;;;;;;;7.50;100.00;99825.38;5021460;28;20207;-74
2023/01/13 04:46:19;;;;;;;0.73;0.57;;;;;;;7.53;100.00;99829.66;5018382;28;20211;-74
2023/01/13 04:48:45;;;;;;;0.40;0.40;;;;;;;7.52;100.00;99828.78;5004635;28;20595;-75
2023/01/13 04:51:12;;;;;;;1.40;0.87;;;;;;;7.50;100.00;99830.56;5020032;28;20207;-74
2023/01/13 04:53:39;;;;;;;0.40;0.40;;;;;;;7.51;100.00;99823.63;5024022;28;20217;-75
2023/01/13 04:56:06;;;;;;;1.37;0.60;;;;;;;7.53;100.00;99829.66;5020248;28;20205;-74
2023/01/13 04:58:33;;;;;;;0.50;0.50;;;;;;;7.53;100.00;99833.09;5020711;28;20239;-74
2023/01/13 05:00:59;;;;;;;0.30;0.30;;;;;;;7.53;100.00;99832.25;5018595;28;20595;-74
2023/01/13 05:03:25;;;;;;;2.27;0.80;;;;;;;7.57;100.00;99839.88;5005178;28;20853;-74
2023/01/13 05:05:52;;;;;;;1.17;0.50;;;;;;;7.61;100.00;99832.88;5023239;28;20293;-75
2023/01/13 05:08:18;;;;;;;0.43;0.43;;;;;;;7.69;100.00;99833.53;5024636;28;20221;-75
2023/01/13 05:10:46;;;;;;;0.60;0.60;;;;;;;7.74;100.00;99830.81;5021136;28;20563;-72
2023/01/13 05:18:43;;;;;;;0.40;0.40;;;;;;;7.75;100.00;99835.09;5000769;28;20402;-74
2023/01/13 05:25:20;;;;;;;0.50;0.50;;;;;;;7.84;100.00;99836.59;5022660;28;20223;-75
2023/01/13 05:26:41;;;;;;;0.40;0.40;;;;;;;7.89;100.00;99832.97;5025236;28;20203;-74
2023/01/13 05:29:07;;;;;;;0.70;0.50;;;;;;;7.95;100.00;99834.56;5033058;28;20545;-74
2023/01/13 05:31:34;;;;;;;0.43;0.43;;;;;;;7.96;100.00;99829.31;5026333;28;20210;-74
2023/01/13 05:34:00;;;;;;;0.43;0.43;;;;;;;7.93;100.00;99837.19;5022185;28;20204;-75
2023/01/13 05:36:27;;;;;;;0.60;0.43;;;;;;;7.96;100.00;99842.28;5022411;28;20194;-74
2023/01/13 05:38:54;;;;;;;1.07;0.50;;;;;;;7.90;100.00;99834.69;5022037;28;20219;-74
2023/01/13 05:44:14;;;;;;;0.57;0.57;;;;;;;7.91;100.00;99832.94;4996418;28;20246;-74
2023/01/13 05:46:40;;;;;;;2.00;1.03;;;;;;;7.96;100.00;99821.53;5021086;28;20203;-75
2023/01/13 05:49:09;;;;;;;0.60;0.60;;;;;;;7.99;100.00;99828.38;5028058;28;20548;-75
2023/01/13 05:51:36;;;;;;;0.97;0.80;;;;;;;7.99;100.00;99823.19;5029740;28;20201;-74
2023/01/13 05:54:02;;;;;;;0.77;0.50;;;;;;;7.94;100.00;99825.91;5022564;28;20454;-74
2023/01/13 05:56:29;;;;;;;0.30;0.30;;;;;;;8.03;100.00;99832.59;5019755;28;20210;-74
2023/01/13 05:58:55;;;;;;;1.70;0.60;;;;;;;8.03;100.00;99835.19;5048245;22;20689;-70
2023/01/13 06:01:23;;;;;;;1.40;0.50;;;;;;;8.01;100.00;99826.59;5041191;28;20492;-70
2023/01/13 06:03:50;;;;;;;0.60;0.60;;;;;;;8.02;100.00;99830.91;5040524;28;20229;-70
2023/01/13 06:06:16;;;;;;;0.50;0.50;;;;;;;8.02;100.00;99836.09;5039758;28;20278;-71
2023/01/13 06:08:42;;;;;;;0.60;0.60;;;;;;;8.04;100.00;99833.44;5042393;28;20219;-69
2023/01/13 06:11:09;;;;;;;3.40;0.50;;;;;;;8.01;100.00;99834.38;5043668;28;20195;-71
2023/01/13 06:13:35;;;;;;;0.47;0.47;;;;;;;8.01;100.00;99852.56;5047812;28;20208;-71
2023/01/13 06:16:01;;;;;;;0.50;0.50;;;;;;;8.05;100.00;99840.34;5041405;28;20578;-69
2023/01/13 06:18:34;;;;;;;0.40;0.40;;;;;;;8.12;100.00;99847.91;5046174;28;20273;-70
2023/01/13 06:21:00;;;;;;;0.50;0.50;;;;;;;8.09;100.00;99850.59;5039784;28;20643;-70
2023/01/13 06:23:27;;;;;;;0.50;0.50;;;;;;;8.11;100.00;99848.81;5043881;28;20206;-71
2023/01/13 06:26:01;;;;;;;0.50;0.50;;;;;;;8.15;100.00;99845.22;5041246;28;20207;-71
2023/01/13 06:28:33;;;;;;;0.47;0.47;;;;;;;8.14;100.00;99850.44;5042449;28;20223;-70
2023/01/13 06:31:03;;;;;;;0.40;0.40;;;;;;;8.13;100.00;99844.41;5047032;28;20196;-71
2023/01/13 06:33:33;;;;;;;0.40;0.40;;;;;;;8.20;100.00;99850.28;5040292;28;20199;-71
2023/01/13 06:36:06;;;;;;;0.50;0.50;;;;;;;8.20;100.00;99842.50;5041328;28;20207;-71
2023/01/13 06:38:36;;;;;;;0.47;0.47;;;;;;;8.14;100.00;99853.94;5043379;28;20226;-70
2023/01/13 06:41:03;;;;;;;0.67;0.60;;;;;;;8.11;100.00;99848.81;5042040;28;20211;-70
2023/01/13 06:43:28;;;;;;;0.57;0.57;;;;;;;8.11;100.00;99851.41;5042234;28;20199;-71
2023/01/13 06:45:56;;;;;;;0.77;0.50;;;;;;;8.15;100.00;99846.97;5038768;28;20582;-71
2023/01/13 06:48:26;;;;;;;0.40;0.40;;;;;;;8.18;100.00;99851.22;5028069;28;20219;-70
2023/01/13 06:50:52;;;;;;;0.50;0.50;;;;;;;8.17;100.00;99849.53;5045478;28;20203;-70
2023/01/13 06:53:20;;;;;;;0.40;0.40;;;;;;;8.24;100.00;99851.91;5023098;28;20582;-70
2023/01/13 06:55:47;;;;;;;0.60;0.60;;;;;;;8.23;100.00;99864.91;5025177;28;20210;-70
2023/01/13 06:58:13;;;;;;;0.43;0.43;;;;;;;8.24;100.00;99856.25;5043748;28;20310;-71
2023/01/13 07:00:40;;;;;;;1.50;0.53;;;;;;;8.30;100.00;99856.06;5022915;28;20258;-70
2023/01/13 07:03:08;;;;;;;0.50;0.50;;;;;;;8.31;100.00;99853.41;5039030;28;20192;-71
2023/01/13 07:05:37;;;;;;;0.47;0.43;;;;;;;8.30;100.00;99854.34;5041059;28;20199;-70
2023/01/13 07:08:04;;;;;;;0.40;0.40;;;;;;;8.36;100.00;99853.28;5037265;28;20281;-69
2023/01/13 07:10:33;;;;;;;0.40;0.40;;;;;;;8.38;100.00;99859.28;5040909;28;20572;-70
2023/01/13 07:15:59;;;;;;;0.90;0.60;;;;;;;8.34;100.00;99853.34;5039484;28;20289;-71
2023/01/13 07:18:27;;;;;;;1.23;0.33;;;;;;;8.34;100.00;99848.16;5038698;28;20223;-71
2023/01/13 07:20:55;;;;;;;2.03;0.70;;;;;;;8.32;100.00;99849.94;5042447;28;20226;-71
2023/01/13 07:23:21;;;;;;;2.03;0.50;;;;;;;8.28;100.00;99852.66;5036678;28;20287;-71
2023/01/13 07:25:51;;;;;;;0.70;0.70;;;;;;;8.25;100.00;99858.81;5039376;28;20435;-71
2023/01/13 07:28:17;;;;;;;0.60;0.57;;;;;;;8.26;100.00;99854.44;5041369;28;20211;-70
2023/01/13 07:30:44;;;;;;;2.00;0.80;;;;;;;8.24;100.00;99862.28;5041748;28;20198;-71
2023/01/13 07:33:10;;;;;;;0.60;0.60;;;;;;;8.25;100.00;99861.41;5041782;28;20633;-69
2023/01/13 07:35:37;;;;;;;1.20;1.10;;;;;;;8.25;100.00;99863.13;5037941;28;20202;-70
2023/01/13 07:38:03;;;;;;;1.80;1.70;;;;;;;8.29;100.00;99862.16;5039148;28;20230;-71
2023/01/13 07:40:29;;;;;;;1.83;1.73;;;;;;;8.30;100.00;99861.25;5045091;28;20203;-70
2023/01/13 07:45:41;;;;;;;2.97;1.40;;;;;;;8.33;100.00;99866.38;5036934;28;20793;-70
2023/01/13 07:48:07;;;;;;;1.07;1.00;;;;;;;8.41;100.00;99861.81;5038020;28;20223;-71
2023/01/13 07:50:34;;;;;;;1.07;0.97;;;;;;;8.47;100.00;99863.41;5044491;28;20202;-70
2023/01/13 07:53:03;;;;;;;1.30;0.90;;;;;;;8.48;100.00;99863.34;5036685;28;20206;-70
2023/01/13 07:55:30;;;;;;;1.53;1.33;;;;;;;8.49;100.00;99861.59;5039081;28;20219;-70
2023/01/13 07:57:58;;;;;;;0.60;0.60;;;;;;;8.49;100.00;99862.44;5042120;28;20218;-71
2023/01/13 08:00:24;;;;;;;0.87;0.87;;;;;;;8.50;100.00;99861.56;5042704;28;20207;-70
2023/01/13 08:02:51;;;;;;;0.70;0.70;;;;;;;8.48;100.00;99860.75;5039577;28;20220;-71
2023/01/13 08:05:17;;;;;;;1.47;1.10;;;;;;;8.49;100.00;99854.66;5040652;28;20245;-70
2023/01/13 08:07:43;;;;;;;0.87;0.87;;;;;;;8.57;100.00;99856.19;5041181;28;20736;-70
2023/01/13 08:10:10;;;;;;;0.93;0.93;;;;;;;8.57;100.00;99862.25;5043596;28;20204;-71
2023/01/13 08:15:22;;;;;;;2.67;0.80;;;;;;;8.59;100.00;99867.38;5042261;28;20756;-71
2023/01/13 08:17:48;;;;;;;0.90;0.90;;;;;;;8.58;100.00;99870.88;5038002;28;20599;-71
2023/01/13 08:20:15;;;;;;;1.23;1.00;;;;;;;8.57;100.00;99867.44;5038651;28;20403;-71
2023/01/13 08:22:43;;;;;;;1.50;1.40;;;;;;;8.53;100.00;99869.28;5036001;28;20308;-71
2023/01/13 08:25:09;;;;;;;0.90;0.70;;;;;;;8.53;100.00;99865.81;5040155;28;20210;-71
2023/01/13 08:27:36;;;;;;;2.90;1.87;;;;;;;8.57;100.00;99867.44;5042476;28;20630;-71
2023/01/13 08:30:02;;;;;;;1.67;1.23;;;;;;;8.60;100.00;99864.75;5039733;28;20879;-70
2023/01/13 08:32:30;;;;;;;1.40;1.10;;;;;;;8.63;100.00;99876.78;5041478;28;20196;-71
2023/01/13 08:34:56;;;;;;;0.67;0.67;;;;;;;8.67;100.00;99879.25;5043488;28;20586;-69
2023/01/13 08:37:23;;;;;;;1.80;0.70;;;;;;;8.66;100.00;99889.69;5040059;28;20658;-70
2023/01/13 08:39:49;;;;;;;0.60;0.60;;;;;;;8.66;100.00;99887.94;5043944;28;20250;-70
2023/01/13 08:42:15;;;;;;;0.57;0.50;;;;;;;8.65;100.00;99888.84;5039187;28;20223;-70
2023/01/13 08:44:42;;;;;;;3.80;1.77;;;;;;;8.66;100.00;99893.13;5018604;28;20211;-70
2023/01/13 08:47:08;;;;;;;2.73;1.23;;;;;;;8.69;100.00;99895.66;5040271;28;20196;-70
2023/01/13 08:49:36;;;;;;;0.50;0.50;;;;;;;8.70;100.00;99899.09;5040867;28;20747;-70
2023/01/13 08:52:03;;;;;;;0.37;0.37;;;;;;;8.71;100.00;99899.06;5043408;28;20202;-69
2023/01/13 08:54:29;;;;;;;1.13;0.60;;;;;;;8.73;100.00;99913.75;5038836;28;20222;-70
2023/01/13 08:56:56;;;;;;;0.60;0.60;;;;;;;8.72;100.00;99912.88;5042678;28;20215;-70
2023/01/13 08:59:22;;;;;;;0.40;0.40;;;;;;;8.61;100.00;99914.97;5043356;28;20253;-70
2023/01/13 09:01:49;;;;;;;0.50;0.40;;;;;;;8.52;100.00;99921.28;5042449;28;20298;-70
2023/01/13 09:04:18;;;;;;;0.63;0.50;;;;;;;8.42;100.00;99920.69;5045568;28;20218;-71
2023/01/13 09:06:47;;;;;;;0.50;0.50;;;;;;;8.37;100.00;99921.69;5040435;28;20224;-68
2023/01/13 09:09:13;;;;;;;0.40;0.40;;;;;;;8.29;100.00;99924.50;5043267;28;20231;-70
2023/01/13 09:14:31;;;;;;;1.13;0.50;;;;;;;8.17;100.00;99927.44;5041328;28;20568;-69
2023/01/13 09:16:57;;;;;;;0.43;0.43;;;;;;;8.12;100.00;99928.38;5036848;28;20199;-70
2023/01/13 09:19:24;;;;;;;0.50;0.50;;;;;;;8.07;100.00;99938.06;5043154;28;20229;-69
2023/01/13 09:21:56;;;;;;;0.83;0.77;;;;;;;8.05;100.00;99952.81;5037351;28;20306;-70
2023/01/13 09:24:23;;;;;;;1.97;1.00;;;;;;;7.95;100.00;99947.03;5039777;28;20699;-70
2023/01/13 09:26:50;;;;;;;0.50;0.50;;;;;;;7.87;100.00;99951.56;5044773;28;20198;-70
2023/01/13 09:29:17;;;;;;;1.00;0.60;;;;;;;7.80;100.00;99954.38;5044609;28;20312;-70
2023/01/13 09:31:44;;;;;;;0.63;0.50;;;;;;;7.73;100.00;99959.69;5044288;28;20196;-70
2023/01/13 09:36:59;;;;;;;0.70;0.70;;;;;;;7.68;100.00;99958.09;5046381;28;20230;-69
2023/01/13 09:39:26;;;;;;;2.00;1.80;;;;;;;7.68;100.00;99947.72;5044939;28;20219;-70
2023/01/13 09:44:45;;;;;;;0.70;0.70;;;;;;;7.75;100.00;99920.72;5043694;28;20199;-70
2023/01/13 09:47:20;;;;;;;0.60;0.60;;;;;;;7.71;100.00;99927.75;5042777;28;20245;-70
2023/01/13 09:49:47;;;;;;;0.80;0.80;;;;;;;7.66;100.00;99928.75;5043099;28;20229;-70
2023/01/13 09:52:19;;;;;;;0.87;0.77;;;;;;;7.65;100.00;99921.84;5025942;28;20203;-68
2023/01/13 09:54:51;;;;;;;1.13;0.60;;;;;;;7.66;100.00;99921.81;5046240;28;20199;-70
2023/01/13 09:57:19;;;;;;;0.50;0.50;;;;;;;7.62;100.00;99912.41;5040067;28;20585;-69
2023/01/13 09:59:46;;;;;;;0.40;0.40;;;;;;;7.56;100.00;99900.47;5039965;28;20211;-70
2023/01/13 10:02:26;;;;;;;1.33;0.93;;;;;;;7.50;100.00;99908.38;5045156;28;20226;-70
2023/01/13 10:05:04;;;;;;;1.13;1.03;;;;;;;7.46;100.00;99932.69;5045628;28;20214;-70
2023/01/13 10:07:37;;;;;;;0.60;0.60;;;;;;;7.43;100.00;99937.09;5040373;28;20206;-69
2023/01/13 10:10:10;;;;;;;0.50;0.50;;;;;;;7.46;100.00;99931.81;5043255;28;20679;-70
2023/01/13 10:15:25;;;;;;;2.10;0.70;;;;;;;7.45;100.00;99948.28;5018058;28;20230;-70
2023/01/13 10:17:58;;;;;;;0.70;0.70;;;;;;;7.47;100.00;99946.50;5038863;28;20195;-69
2023/01/13 10:20:31;;;;;;;0.97;0.70;;;;;;;7.46;100.00;99956.03;5044084;28;20198;-70
2023/01/13 10:23:09;;;;;;;1.03;0.90;;;;;;;7.47;100.00;99949.09;5036549;28;20411;-70
2023/01/13 10:25:50;;;;;;;0.53;0.53;;;;;;;7.45;100.00;99949.13;5040078;28;20378;-70
2023/01/13 10:28:18;;;;;;;0.50;0.50;;;;;;;7.41;100.00;99955.28;5041015;28;20223;-70
2023/01/13 10:30:46;;;;;;;0.47;0.47;;;;;;;7.35;100.00;99955.44;5039646;28;20663;-70
2023/01/13 10:33:16;;;;;;;0.50;0.50;;;;;;;7.29;100.00;99958.19;5043258;28;20276;-69
2023/01/13 10:35:53;;;;;;;0.83;0.50;;;;;;;7.17;100.00;99965.34;5045198;28;20211;-70
2023/01/13 10:38:23;;;;;;;0.90;0.90;;;;;;;7.17;100.00;99961.91;5038470;28;20678;-70
2023/01/13 10:40:53;;;;;;;1.37;0.80;;;;;;;7.10;100.00;99945.63;5024100;28;20204;-70
2023/01/13 10:43:19;;;;;;;0.67;0.50;;;;;;;7.10;100.00;99942.19;5041364;28;20270;-69
2023/01/13 10:46:02;;;;;;;1.27;0.47;;;;;;;7.07;100.00;99934.47;5041550;28;20202;-70
2023/01/13 10:48:34;;;;;;;0.50;0.40;;;;;;;7.04;100.00;99940.59;5041204;28;20593;-68
2023/01/13 10:51:19;;;;;;;0.40;0.40;;;;;;;6.96;100.00;99929.53;5039516;28;20216;-69
2023/01/13 10:53:51;;;;;;;0.60;0.60;;;;;;;6.92;100.00;99936.53;5040109;28;20305;-69
2023/01/13 10:56:20;;;;;;;2.27;0.60;;;;;;;6.90;100.00;99945.22;5041139;28;20216;-70
2023/01/13 10:58:46;;;;;;;0.80;0.57;;;;;;;6.87;100.00;99934.94;5041712;28;20267;-69
2023/01/13 11:01:24;;;;;;;0.63;0.50;;;;;;;6.83;100.00;99941.91;5037477;28;20768;-70
2023/01/13 11:03:51;;;;;;;0.60;0.60;;;;;;;6.84;100.00;99935.81;5038240;28;20208;-69
2023/01/13 11:06:23;;;;;;;1.43;0.40;;;;;;;6.82;100.00;99927.25;5039416;28;20500;-69
2023/01/13 11:08:54;;;;;;;1.03;0.53;;;;;;;6.82;100.00;99916.88;5043324;28;20229;-69
2023/01/13 11:11:38;;;;;;;0.83;0.50;;;;;;;6.85;100.00;99897.84;5042801;28;20301;-70
2023/01/13 11:16:59;;;;;;;3.60;2.37;;;;;;;6.83;100.00;99846.03;5038083;28;20596;-69
2023/01/13 11:19:30;;;;;;;0.77;0.60;;;;;;;6.83;100.00;99836.53;5041108;28;20226;-69
2023/01/13 11:22:04;;;;;;;1.43;1.33;;;;;;;6.80;100.00;99872.84;5040995;28;20213;-69
2023/01/13 11:24:38;;;;;;;1.27;0.97;;;;;;;6.78;100.00;99876.38;5040887;28;20216;-70
2023/01/13 11:27:13;;;;;;;1.87;0.70;;;;;;;6.73;100.00;99888.59;5038227;28;20199;-69
2023/01/13 11:29:51;;;;;;;2.77;0.77;;;;;;;6.72;100.00;99866.16;5040010;28;20292;-70
2023/01/13 11:32:20;;;;;;;1.80;0.80;;;;;;;6.73;100.00;99853.16;5040292;28;20205;-69
2023/01/13 11:34:51;;;;;;;2.20;0.70;;;;;;;6.72;100.00;99840.25;5037078;28;20642;-70
2023/01/13 11:37:23;;;;;;;0.60;0.60;;;;;;;6.73;100.00;99871.28;5039612;28;20571;-70
2023/01/13 11:39:56;;;;;;;1.17;0.60;;;;;;;6.75;100.00;99902.34;5043110;28;20228;-70
2023/01/13 11:42:26;;;;;;;1.63;0.80;;;;;;;6.81;100.00;99897.91;5033906;28;20916;-70
2023/01/13 11:45:01;;;;;;;1.90;0.67;;;;;;;6.85;100.00;99911.63;5022092;28;20585;-70
2023/01/13 11:47:29;;;;;;;2.07;0.90;;;;;;;6.91;100.00;99914.09;5041416;28;20551;-70
2023/01/13 11:49:56;;;;;;;0.50;0.50;;;;;;;6.93;100.00;99911.44;5043550;28;20287;-69
2023/01/13 11:52:30;;;;;;;1.53;0.70;;;;;;;6.90;100.00;99921.91;5038325;28;20201;-69
2023/01/13 11:55:09;;;;;;;3.23;0.40;;;;;;;6.79;100.00;99923.00;5043601;28;20197;-70
2023/01/13 11:57:52;;;;;;;0.40;0.40;;;;;;;6.73;100.00;99932.63;5041123;28;20203;-70
2023/01/13 12:00:55;;;;;;;0.53;0.53;;;;;;;6.71;100.00;99937.84;5059670;22;20240;-72
2023/01/13 12:03:27;;;;;;;0.57;0.57;;;;;;;6.71;100.00;99939.59;5042354;28;20278;-71
2023/01/13 12:06:02;;;;;;;0.50;0.50;;;;;;;6.72;100.00;99930.91;5031592;28;20261;-72
2023/01/13 12:08:47;;;;;;;0.83;0.70;;;;;;;6.73;100.00;99930.88;5025722;28;20263;-71
2023/01/13 12:11:21;;;;;;;0.63;0.63;;;;;;;6.68;100.00;99924.94;5005134;28;20220;-73
2023/01/13 12:14:05;;;;;;;0.60;0.50;;;;;;;6.63;100.00;99935.41;5010453;28;20579;-71
2023/01/13 12:16:32;;;;;;;0.60;0.47;;;;;;;6.56;100.00;99944.22;5017781;28;20282;-71
2023/01/13 12:19:20;;;;;;;0.50;0.50;;;;;;;6.53;100.00;99940.81;5019859;28;20207;-71
2023/01/13 12:22:02;;;;;;;1.03;0.50;;;;;;;6.50;100.00;99941.72;5018764;28;20840;-71
2023/01/13 12:24:32;;;;;;;2.07;0.60;;;;;;;6.50;100.00;99946.06;5018432;28;20562;-71
2023/01/13 12:27:03;;;;;;;1.30;0.90;;;;;;;6.63;100.00;99939.72;5022085;28;20235;-72
2023/01/13 12:29:33;;;;;;;1.13;0.90;;;;;;;6.77;100.00;99942.91;5024430;28;20725;-71
2023/01/13 12:32:01;;;;;;;0.60;0.50;;;;;;;6.86;100.00;99941.84;5017181;28;20268;-71
2023/01/13 12:34:43;;;;;;;0.60;0.60;;;;;;;6.88;100.00;99932.31;5019199;28;20274;-71